Portada
METAR-TAF:

METAR-TAF

Aeroports :

Weno, Micronèsia

latitud: 07-28N, longitud: 151-51E, altitud: 3 m

Observació

L'informe es va fer fa 32 minuts, a les 01:52 UTC
Vent 8 kt del Nord/Nord-Est
Temperatura 31°C
Humitat 75%
Pressió 1009 hPa
Visibilitat: 24.1 km
Escasses núvols a una alçada de 1400 ft
Núvols disperses a una alçada de 12000 ft
Cel cobert a una alçada de 28000 ft

METAR: PTKK 160152Z 02008KT 15SM FEW014 SCT120 OVC280 31/26 A2979 RMK SLP091 T03070263

Hora: 12:24 (02:24 UTC)

Pronòstic

L'informe es va fer fa 2 hores i 42 minuts, a les 23:42 UTC
Pronòstic vàlid del 16 a les 00 UTC al 16 a les 24 UTC
Vent 11 kt del Nord-Est
Visibilitat: 10 km
Núvols disperses a una alçada de 1400 ft
Núvols disperses a una alçada de 4000 ft
Cel ennuvolat a una alçada de 12000 ft
xàfecs en les proximitats

TAF: PTKK 152342Z 1600/1624 05011KT P6SM VCSH SCT014 SCT040 BKN120

Observacions i pronòstics meteorològics de més de 4000 aeroports (METAR i TAF).

Les estacions disponibles són els punts grocs i vermells al mapa.

Posi el ratolí al punt desitjat per veure el nom de l'estació.

Feu clic per veure les observacions i els pronòstics meteorològics.

Per canviar el mapa: feu clic els botons verds amb una creu de color negre per apropar; al botó verd amb un guió per allunyar la imatge; o en les fletxes verdes per a mapes adjacents.


METAR-TAF: